This is the latest recevied weather packets stored in our database for station/object SR2CPA-13. If no packets are shown the sender has not sent any weather packets the latest 10 day(s).
| Time | Temp. | Humidity | Pressure | Rain* | Wind** | Luminosity | Snow |
|---|---|---|---|---|---|---|---|
| 1777899595 | 22.22° C | 57% | 0 hPa | 0 mm | - | - | - |
| 1777898975 | 22.22° C | 55% | 0 hPa | 0 mm | - | - | - |
| 1777898375 | 22.78° C | 54% | 0 hPa | 0 mm | - | - | - |
| 1777897755 | 22.78° C | 52% | 0 hPa | 0 mm | - | - | - |
| 1777897155 | 23.33° C | 49% | 0 hPa | 0 mm | - | - | - |
| 1777896555 | 22.78° C | 51% | 0 hPa | 0 mm | - | - | - |
| 1777895935 | 23.89° C | 48% | 0 hPa | 0 mm | - | - | - |
| 1777895315 | 23.89° C | 48% | 0 hPa | 0 mm | - | - | - |
| 1777894715 | 24.44° C | 47% | 0 hPa | 0 mm | - | - | - |
| 1777894095 | 23.89° C | 46% | 0 hPa | 0 mm | - | - | - |
| 1777893495 | 23.89° C | 49% | 0 hPa | 0 mm | - | - | - |
| 1777892875 | 24.44° C | 48% | 0 hPa | 0 mm | - | - | - |
| 1777892275 | 23.89° C | 49% | 0 hPa | 0 mm | - | - | - |
| 1777891655 | 23.33° C | 51% | 0 hPa | 0 mm | - | - | - |
| 1777891055 | 23.33° C | 48% | 0 hPa | 0 mm | - | - | - |
| 1777890435 | 22.78° C | 51% | 0 hPa | 0 mm | - | - | - |
| 1777889835 | 22.78° C | 51% | 0 hPa | 0 mm | - | - | - |
| 1777889235 | 23.33° C | 51% | 0 hPa | 0 mm | - | - | - |
| 1777888615 | 23.33° C | 50% | 0 hPa | 0 mm | - | - | - |
| 1777887995 | 23.33° C | 50% | 0 hPa | 0 mm | - | - | - |
| 1777887395 | 22.78° C | 52% | 0 hPa | 0 mm | - | - | - |
| 1777886775 | 22.78° C | 49% | 0 hPa | 0 mm | - | - | - |
| 1777886175 | 22.78° C | 50% | 0 hPa | 0 mm | - | - | - |
| 1777885555 | 22.22° C | 51% | 0 hPa | 0 mm | - | - | - |
| 1777884955 | 21.67° C | 53% | 0 hPa | 0 mm | - | - | - |
* Rain latest hour (hover to see other rain measurements)
** Current wind speed in m/s (hover to see current wind gust speed)